createdAt,value
2022-08-08T00:02:30.931Z,0.90
2022-08-08T00:08:09.343Z,0.90
2022-08-08T00:14:15.861Z,0.90
2022-08-08T00:19:51.337Z,0.90
2022-08-08T00:25:39.065Z,0.90
2022-08-08T00:32:20.178Z,0.90
2022-08-08T00:37:47.256Z,0.98
2022-08-08T00:43:45.922Z,1.20
2022-08-08T00:49:58.831Z,0.90
2022-08-08T00:55:54.363Z,0.73
2022-08-08T01:01:37.621Z,0.80
2022-08-08T01:07:55.854Z,1.10
2022-08-08T01:13:58.036Z,0.88
2022-08-08T01:20:03.468Z,1.17
2022-08-08T01:26:05.985Z,0.82
2022-08-08T01:32:16.269Z,0.90
2022-08-08T01:38:33.491Z,1.05
2022-08-08T01:44:26.819Z,0.75
2022-08-08T01:50:20.836Z,0.90
2022-08-08T01:56:29.540Z,0.75
2022-08-08T02:02:39.889Z,0.90
2022-08-08T02:08:41.335Z,0.90
2022-08-08T02:14:27.702Z,1.00
2022-08-08T02:21:01.379Z,1.10
2022-08-08T02:26:16.537Z,1.00
2022-08-08T02:32:27.240Z,1.05
2022-08-08T02:38:11.013Z,1.20
2022-08-08T02:44:38.104Z,1.10
2022-08-08T02:50:39.975Z,1.15
2022-08-08T02:56:33.755Z,1.20
2022-08-08T03:02:20.226Z,1.00
2022-08-08T03:08:19.370Z,1.05
2022-08-08T03:16:02.469Z,1.10
2022-08-08T03:20:25.808Z,1.02
2022-08-08T03:25:58.189Z,1.10
2022-08-08T03:32:06.616Z,1.02
2022-08-08T03:37:59.350Z,1.00
2022-08-08T03:43:38.289Z,1.23
2022-08-08T03:49:58.078Z,1.27
2022-08-08T03:55:20.049Z,0.95
2022-08-08T04:01:23.571Z,0.98
2022-08-08T04:07:00.962Z,0.82
2022-08-08T04:12:37.403Z,0.88
2022-08-08T04:18:09.343Z,0.90
2022-08-08T04:24:11.504Z,1.10
2022-08-08T04:29:44.769Z,1.10
2022-08-08T04:35:39.527Z,1.20
2022-08-08T04:41:17.941Z,1.00
2022-08-08T04:46:53.513Z,1.10
2022-08-08T04:52:25.495Z,0.95
2022-08-08T04:58:11.105Z,0.88
2022-08-08T05:04:11.008Z,2.58
2022-08-08T05:09:41.363Z,1.52
2022-08-08T05:15:13.715Z,5.50
2022-08-08T05:20:50.495Z,4.30
2022-08-08T05:26:23.836Z,3.65
2022-08-08T05:32:03.785Z,1.77
2022-08-08T05:37:52.745Z,4.30
2022-08-08T05:44:04.205Z,17.10
2022-08-08T05:49:38.138Z,9.85
2022-08-08T05:55:10.933Z,6.13
2022-08-08T06:00:57.107Z,5.82
2022-08-08T06:06:32.625Z,1.73
2022-08-08T06:12:07.230Z,1.60
2022-08-08T06:18:18.234Z,1.97
2022-08-08T06:24:01.956Z,1.60
2022-08-08T06:29:59.528Z,1.88
2022-08-08T06:36:06.670Z,1.58
2022-08-08T06:41:23.526Z,1.73
2022-08-08T06:47:04.234Z,1.92
2022-08-08T06:52:42.963Z,1.98
2022-08-08T06:58:19.619Z,2.00
2022-08-08T07:04:37.510Z,2.80
2022-08-08T07:10:08.242Z,4.82
2022-08-08T07:16:10.600Z,2.55
2022-08-08T07:22:11.998Z,1.83
2022-08-08T07:28:08.282Z,1.70
2022-08-08T07:33:58.830Z,2.08
2022-08-08T07:39:45.679Z,1.17
2022-08-08T07:45:34.711Z,2.13
2022-08-08T07:51:24.397Z,1.73
2022-08-08T07:57:29.301Z,1.77
2022-08-08T08:03:23.451Z,1.83
2022-08-08T08:09:13.607Z,2.42
2022-08-08T08:15:07.099Z,1.80
2022-08-08T08:20:43.526Z,2.10
2022-08-08T08:26:27.284Z,3.65
2022-08-08T08:32:03.543Z,2.90
2022-08-08T08:37:59.202Z,2.15
2022-08-08T08:43:31.974Z,2.03
2022-08-08T08:49:05.770Z,1.80
2022-08-08T08:54:41.373Z,1.20
2022-08-08T09:00:16.977Z,1.50
2022-08-08T09:05:54.163Z,2.00
2022-08-08T09:11:33.105Z,3.70
2022-08-08T09:17:12.833Z,2.03
2022-08-08T09:22:45.888Z,2.97
2022-08-08T09:28:35.789Z,1.92
2022-08-08T09:34:32.359Z,1.20
2022-08-08T09:40:12.012Z,1.00
2022-08-08T09:45:54.923Z,1.35
2022-08-08T09:52:01.752Z,1.50
2022-08-08T09:57:46.309Z,1.52
2022-08-08T10:03:31.822Z,1.40
2022-08-08T10:09:08.355Z,1.60
2022-08-08T10:14:40.493Z,1.40
2022-08-08T10:20:17.111Z,1.55
2022-08-08T10:25:57.044Z,1.17
2022-08-08T10:31:49.882Z,1.40
2022-08-08T10:37:28.259Z,1.50
2022-08-08T10:43:04.070Z,1.63
2022-08-08T10:48:57.251Z,1.52
2022-08-08T10:54:27.617Z,1.70
2022-08-08T10:59:59.722Z,1.13
2022-08-08T11:05:38.397Z,1.90
2022-08-08T11:11:31.566Z,1.83
2022-08-08T11:17:03.984Z,1.87
2022-08-08T11:22:35.638Z,1.60
2022-08-08T11:28:09.008Z,2.37
2022-08-08T11:33:52.585Z,1.50
2022-08-08T11:39:37.119Z,1.45
2022-08-08T11:45:10.163Z,1.40
2022-08-08T11:50:41.609Z,1.70
2022-08-08T11:56:23.625Z,1.70
2022-08-08T12:02:30.470Z,1.30
2022-08-08T12:07:56.805Z,1.85
2022-08-08T12:13:33.338Z,1.50
2022-08-08T12:19:12.382Z,1.40
2022-08-08T12:24:51.548Z,1.52
2022-08-08T12:30:32.068Z,1.70
2022-08-08T12:36:13.953Z,1.30
2022-08-08T12:41:57.771Z,1.40
2022-08-08T12:47:58.950Z,1.23
2022-08-08T12:53:37.661Z,1.33
2022-08-08T12:59:16.425Z,1.23
2022-08-08T13:04:51.831Z,1.45
2022-08-08T13:10:32.756Z,1.55
2022-08-08T13:16:25.599Z,1.70
2022-08-08T13:22:04.619Z,1.25
2022-08-08T13:27:37.137Z,1.30
2022-08-08T13:33:08.694Z,1.42
2022-08-08T13:38:40.161Z,1.37
2022-08-08T13:50:37.383Z,1.20
2022-08-08T13:55:36.654Z,1.30
2022-08-08T14:01:17.723Z,1.48
2022-08-08T14:06:49.092Z,1.30
2022-08-08T14:12:20.336Z,1.67
2022-08-08T14:18:36.745Z,1.50
2022-08-08T14:24:04.586Z,1.73
2022-08-08T14:29:40.278Z,1.50
2022-08-08T14:35:13.288Z,1.60
2022-08-08T14:40:48.267Z,1.60
2022-08-08T14:46:32.479Z,1.60
2022-08-08T14:52:09.034Z,1.60
2022-08-08T14:58:03.594Z,1.50
2022-08-08T15:03:35.287Z,1.25
2022-08-08T15:09:15.980Z,1.48
2022-08-08T15:14:49.665Z,1.40
2022-08-08T15:20:20.915Z,1.20
2022-08-08T15:25:52.000Z,1.40
2022-08-08T15:31:55.477Z,1.42
2022-08-08T15:37:14.235Z,1.52
2022-08-08T15:42:49.687Z,1.50
2022-08-08T15:48:21.365Z,1.27
2022-08-08T15:53:54.328Z,1.30
2022-08-08T16:00:06.700Z,1.85
2022-08-08T16:05:19.407Z,1.23
2022-08-08T16:16:43.063Z,1.50
2022-08-08T16:22:28.717Z,1.13
2022-08-08T16:28:02.417Z,1.50
2022-08-08T16:33:38.793Z,1.17
2022-08-08T16:39:27.829Z,1.30
2022-08-08T16:44:59.537Z,1.40
2022-08-08T16:50:30.785Z,1.02
2022-08-08T16:56:03.151Z,1.07
2022-08-08T17:01:35.631Z,1.25
2022-08-08T17:07:11.285Z,1.20
2022-08-08T17:12:47.033Z,1.30
2022-08-08T17:18:24.987Z,1.27
2022-08-08T17:24:00.483Z,1.20
2022-08-08T17:29:36.457Z,1.40
2022-08-08T17:35:54.131Z,1.23
2022-08-08T17:41:07.835Z,1.17
2022-08-08T17:46:44.039Z,1.45
2022-08-08T17:52:15.313Z,1.30
2022-08-08T17:57:46.518Z,1.38
2022-08-08T18:03:18.751Z,1.40
2022-08-08T18:08:55.363Z,1.52
2022-08-08T18:14:27.635Z,1.77
2022-08-08T18:20:43.587Z,1.30
2022-08-08T18:25:51.204Z,1.43
2022-08-08T18:31:22.912Z,1.42
2022-08-08T18:36:55.809Z,1.52
2022-08-08T18:42:26.923Z,1.43
2022-08-08T18:47:58.056Z,1.33
2022-08-08T18:54:00.799Z,1.25
2022-08-08T18:59:22.921Z,1.25
2022-08-08T19:04:54.547Z,1.23
2022-08-08T19:10:25.916Z,1.20
2022-08-08T19:15:57.166Z,1.20
2022-08-08T19:21:33.551Z,1.08
2022-08-08T19:27:56.111Z,1.20
2022-08-08T19:33:10.710Z,0.95
2022-08-08T19:38:43.148Z,0.93
2022-08-08T19:44:26.673Z,1.13
2022-08-08T19:50:06.603Z,1.15
2022-08-08T19:55:39.990Z,1.10
2022-08-08T20:01:17.518Z,1.23
2022-08-08T20:06:51.065Z,1.60
2022-08-08T20:18:15.779Z,1.13
2022-08-08T20:23:52.285Z,1.10
2022-08-08T20:29:24.404Z,1.10
2022-08-08T20:35:15.413Z,1.00
2022-08-08T20:40:53.860Z,1.00
2022-08-08T20:46:25.324Z,0.90
2022-08-08T20:51:58.535Z,1.30
2022-08-08T21:03:01.301Z,1.20
2022-08-08T21:08:36.043Z,1.00
2022-08-08T21:14:30.377Z,1.10
2022-08-08T21:20:06.355Z,1.13
2022-08-08T21:25:37.622Z,1.00
2022-08-08T21:31:21.917Z,1.48
2022-08-08T21:36:55.274Z,1.30
2022-08-08T21:42:29.897Z,1.10
2022-08-08T21:48:10.936Z,1.00
2022-08-08T21:54:33.971Z,1.10
2022-08-08T22:00:01.243Z,1.10
2022-08-08T22:05:44.327Z,1.00
2022-08-08T22:11:51.301Z,1.23
2022-08-08T22:17:07.210Z,1.88
2022-08-08T22:22:39.196Z,1.20
2022-08-08T22:29:04.032Z,1.30
2022-08-08T22:34:13.948Z,1.20
2022-08-08T22:40:00.397Z,1.15
2022-08-08T22:45:33.402Z,1.20
2022-08-08T22:51:06.966Z,1.00
2022-08-08T22:56:37.918Z,0.97
2022-08-08T23:07:50.877Z,1.50
2022-08-08T23:13:22.977Z,1.00
2022-08-08T23:18:59.916Z,1.20
2022-08-08T23:24:36.280Z,1.17
2022-08-08T23:30:09.373Z,0.98
2022-08-08T23:35:59.081Z,1.15
2022-08-08T23:41:32.348Z,1.20
2022-08-08T23:49:00.920Z,1.10
2022-08-08T23:53:07.928Z,1.38
2022-08-08T23:58:45.772Z,1.00
